Terminal Aerodrome Forecast
Issued by NWS Northern Indiana

Home | Current Version | Previous Version | Graphics & Text | Print | Product List | Glossary On
Versions: 1 2 3 4 5 6 7 8 9 10 11 12 13
000
FTUS43 KIWX 260500
TAFFWA
TAF
KFWA 260532Z 2606/2706 19005KT P6SM BKN250
     FM260800 22004KT 5SM BR BKN035
     FM261500 25009KT P6SM SCT035
     FM261800 28010KT P6SM VCTS BKN035CB
     FM270300 28005KT P6SM BKN250=

USA.gov is the U.S. government's official web portal to all federal, state and local government web resources and services.